createdAt,value
2019-04-20T00:00:48.808Z,53.84
2019-04-20T00:03:18.063Z,53.84
2019-04-20T00:05:51.084Z,53.23
2019-04-20T00:08:29.261Z,53.27
2019-04-20T00:11:07.326Z,53.18
2019-04-20T00:13:42.648Z,53.58
2019-04-20T00:16:06.216Z,53.66
2019-04-20T00:18:46.631Z,53.69
2019-04-20T00:21:34.518Z,53.61
2019-04-20T00:24:16.958Z,53.05
2019-04-20T00:27:26.072Z,54.02
2019-04-20T00:29:40.511Z,54.27
2019-04-20T00:32:09.849Z,54.42
2019-04-20T00:34:35.595Z,54.36
2019-04-20T00:37:05.192Z,55.12
2019-04-20T00:39:38.353Z,54.14
2019-04-20T00:42:15.860Z,53.96
2019-04-20T00:44:56.320Z,53.36
2019-04-20T00:47:34.310Z,54.60
2019-04-20T00:50:14.080Z,54.20
2019-04-20T00:52:47.057Z,53.70
2019-04-20T00:55:06.362Z,54.75
2019-04-20T00:57:49.553Z,54.70
2019-04-20T01:00:35.049Z,53.52
2019-04-20T01:03:02.641Z,53.73
2019-04-20T01:05:56.737Z,54.12
2019-04-20T01:08:27.744Z,54.02
2019-04-20T01:11:01.398Z,53.49
2019-04-20T01:13:43.493Z,54.11
2019-04-20T01:16:23.230Z,54.18
2019-04-20T01:18:47.209Z,55.17
2019-04-20T01:21:24.821Z,55.65
2019-04-20T01:23:58.540Z,55.53
2019-04-20T01:26:29.450Z,55.36
2019-04-20T01:29:13.747Z,54.94
2019-04-20T01:31:45.485Z,55.58
2019-04-20T01:34:23.018Z,55.14
2019-04-20T01:36:56.444Z,55.29
2019-04-20T01:39:28.407Z,55.72
2019-04-20T01:41:54.100Z,55.44
2019-04-20T01:44:33.231Z,55.39
2019-04-20T01:47:06.257Z,55.20
2019-04-20T01:49:38.474Z,55.53
2019-04-20T01:52:16.090Z,55.71
2019-04-20T01:55:07.163Z,55.63
2019-04-20T01:57:38.585Z,55.77
2019-04-20T02:00:18.233Z,55.53
2019-04-20T02:02:58.234Z,55.81
2019-04-20T02:05:29.689Z,55.57
2019-04-20T02:07:59.087Z,55.27
2019-04-20T02:10:41.747Z,56.06
2019-04-20T02:13:11.207Z,55.98
2019-04-20T02:15:51.229Z,56.33
2019-04-20T02:18:31.801Z,56.04
2019-04-20T02:21:17.309Z,56.02
2019-04-20T02:23:38.762Z,56.73
2019-04-20T02:26:07.170Z,56.52
2019-04-20T02:29:05.686Z,56.53
2019-04-20T02:31:59.474Z,56.88
2019-04-20T02:34:33.542Z,56.67
2019-04-20T02:42:17.588Z,57.10
2019-04-20T02:45:13.359Z,57.12
2019-04-20T02:47:30.656Z,57.17
2019-04-20T02:52:45.988Z,57.04
2019-04-20T02:55:09.599Z,57.83
2019-04-20T02:57:45.938Z,57.37
2019-04-20T03:00:23.795Z,58.04
2019-04-20T03:02:35.922Z,58.01
2019-04-20T03:05:06.384Z,58.22
2019-04-20T03:07:41.466Z,58.60
2019-04-20T03:10:17.769Z,58.39
2019-04-20T03:12:56.987Z,58.55
2019-04-20T03:15:33.838Z,58.58
2019-04-20T03:18:03.631Z,58.52
2019-04-20T03:20:36.595Z,58.70
2019-04-20T03:23:24.843Z,59.15
2019-04-20T03:26:12.856Z,58.89
2019-04-20T03:29:00.223Z,59.56
2019-04-20T03:32:08.493Z,59.06
2019-04-20T03:34:42.890Z,58.67
2019-04-20T03:36:53.751Z,58.97
2019-04-20T03:39:18.073Z,58.96
2019-04-20T03:41:40.379Z,58.41
2019-04-20T03:44:15.369Z,57.51
2019-04-20T03:46:53.086Z,58.71
2019-04-20T03:49:52.190Z,58.42
2019-04-20T03:52:31.376Z,57.58
2019-04-20T03:55:26.343Z,58.77
2019-04-20T03:58:24.183Z,58.59
2019-04-20T04:01:22.713Z,57.58
2019-04-20T04:04:05.332Z,57.34
2019-04-20T04:06:26.406Z,57.86
2019-04-20T04:09:02.710Z,58.15
2019-04-20T04:11:46.035Z,57.93
2019-04-20T04:14:00.771Z,58.48
2019-04-20T04:16:42.036Z,58.52
2019-04-20T04:19:18.927Z,58.23
2019-04-20T04:21:59.258Z,58.75
2019-04-20T04:24:31.528Z,58.63
2019-04-20T04:27:05.880Z,58.28
2019-04-20T04:29:46.800Z,58.00
2019-04-20T04:32:33.254Z,58.26
2019-04-20T04:34:52.652Z,57.82
2019-04-20T04:37:32.493Z,58.54
2019-04-20T04:40:22.340Z,58.22
2019-04-20T04:42:46.792Z,58.73
2019-04-20T04:45:03.935Z,58.53
2019-04-20T04:47:30.515Z,58.47
2019-04-20T04:50:09.593Z,58.33
2019-04-20T04:52:45.355Z,58.34
2019-04-20T04:55:23.529Z,58.50
2019-04-20T04:57:47.172Z,57.78
2019-04-20T05:00:25.558Z,58.36
2019-04-20T05:02:58.531Z,58.53
2019-04-20T05:05:50.425Z,58.31
2019-04-20T05:08:18.081Z,58.65
2019-04-20T05:10:45.788Z,58.96
2019-04-20T05:13:19.928Z,59.00
2019-04-20T05:16:07.834Z,58.80
2019-04-20T05:18:53.085Z,57.80
2019-04-20T05:21:25.582Z,57.39
2019-04-20T05:23:59.459Z,57.92
2019-04-20T05:26:53.090Z,57.84
2019-04-20T05:29:10.522Z,56.86
2019-04-20T05:31:42.354Z,57.11
2019-04-20T05:34:30.888Z,56.88
2019-04-20T05:37:04.753Z,56.97
2019-04-20T05:39:40.712Z,56.77
2019-04-20T05:42:20.285Z,56.69
2019-04-20T05:44:49.908Z,56.29
2019-04-20T05:47:21.691Z,56.81
2019-04-20T05:49:53.795Z,56.59
2019-04-20T05:52:44.127Z,56.42
2019-04-20T05:55:04.406Z,56.07
2019-04-20T05:57:42.062Z,56.41
2019-04-20T06:00:37.553Z,55.92
2019-04-20T06:03:02.342Z,55.64
2019-04-20T06:05:45.932Z,55.40
2019-04-20T06:08:15.675Z,55.72
2019-04-20T06:10:50.609Z,55.73
2019-04-20T06:13:25.260Z,55.40
2019-04-20T06:16:07.627Z,55.03
2019-04-20T06:18:45.921Z,55.06
2019-04-20T06:24:18.328Z,54.90
2019-04-20T06:29:21.903Z,54.33
2019-04-20T06:32:06.944Z,53.89
2019-04-20T06:37:01.059Z,53.87
2019-04-20T06:42:17.622Z,54.00
2019-04-20T06:44:50.506Z,53.54
2019-04-20T06:47:27.697Z,53.24
2019-04-20T06:49:56.714Z,52.12
2019-04-20T06:52:36.947Z,50.87
2019-04-20T06:55:14.050Z,50.38
2019-04-20T06:57:55.109Z,49.07
2019-04-20T07:00:23.187Z,48.56
2019-04-20T07:03:05.869Z,48.30
2019-04-20T07:05:40.630Z,47.52
2019-04-20T07:08:31.367Z,46.62
2019-04-20T07:10:51.395Z,44.58
2019-04-20T07:13:14.887Z,43.07
2019-04-20T07:16:21.487Z,43.03
2019-04-20T07:19:17.545Z,42.82
2019-04-20T07:22:18.708Z,43.29
2019-04-20T07:24:42.897Z,43.04
2019-04-20T07:27:12.263Z,40.30
2019-04-20T07:29:47.982Z,41.17
2019-04-20T07:32:15.340Z,41.11
2019-04-20T07:34:56.689Z,40.89
2019-04-20T07:38:16.202Z,39.45
2019-04-20T07:40:26.912Z,37.30
2019-04-20T07:42:59.194Z,37.67
2019-04-20T07:45:36.226Z,37.91
2019-04-20T07:48:17.950Z,37.18
2019-04-20T07:50:37.618Z,37.48
2019-04-20T07:53:18.562Z,38.06
2019-04-20T07:55:59.375Z,35.54
2019-04-20T07:58:22.771Z,35.30
2019-04-20T08:01:23.512Z,34.55
2019-04-20T08:03:55.674Z,34.49
2019-04-20T08:06:27.340Z,34.30
2019-04-20T08:09:08.668Z,33.53
2019-04-20T08:11:50.425Z,33.18
2019-04-20T08:14:24.208Z,34.26
2019-04-20T08:17:12.146Z,33.85
2019-04-20T08:19:28.776Z,33.77
2019-04-20T08:22:07.684Z,31.53
2019-04-20T08:24:32.777Z,31.41
2019-04-20T08:27:05.776Z,31.77
2019-04-20T08:29:54.246Z,31.70
2019-04-20T08:32:38.939Z,30.38
2019-04-20T08:35:23.127Z,29.03
2019-04-20T08:38:01.875Z,29.14
2019-04-20T08:40:25.459Z,28.83
2019-04-20T08:43:13.059Z,28.70
2019-04-20T08:45:35.034Z,30.04
2019-04-20T08:48:20.230Z,30.08
2019-04-20T08:50:48.539Z,29.00
2019-04-20T08:53:27.893Z,28.75
2019-04-20T08:55:51.473Z,27.73
2019-04-20T08:58:13.646Z,28.05
2019-04-20T09:00:53.589Z,25.90
2019-04-20T09:03:26.650Z,26.52
2019-04-20T09:06:03.208Z,27.64
2019-04-20T09:08:42.288Z,26.03
2019-04-20T09:11:23.155Z,26.48
2019-04-20T09:13:46.617Z,25.31
2019-04-20T09:16:13.232Z,24.81
2019-04-20T09:18:56.413Z,25.99
2019-04-20T09:21:33.094Z,25.04
2019-04-20T09:24:21.714Z,23.40
2019-04-20T09:26:47.977Z,24.93
2019-04-20T09:29:16.921Z,26.21
2019-04-20T09:31:52.013Z,25.95
2019-04-20T09:34:37.119Z,25.72
2019-04-20T09:37:29.703Z,25.64
2019-04-20T09:40:25.584Z,26.46
2019-04-20T09:42:46.349Z,26.49
2019-04-20T09:45:35.439Z,26.72
2019-04-20T09:48:00.591Z,26.39
2019-04-20T09:50:56.510Z,23.57
2019-04-20T09:53:26.923Z,24.27
2019-04-20T09:56:04.553Z,25.29
2019-04-20T09:58:32.025Z,24.16
2019-04-20T10:01:09.742Z,23.87
2019-04-20T10:03:31.159Z,23.53
2019-04-20T10:06:05.830Z,23.46
2019-04-20T10:08:43.602Z,24.13
2019-04-20T10:11:15.175Z,24.87
2019-04-20T10:13:48.125Z,24.46
2019-04-20T10:16:21.875Z,24.56
2019-04-20T10:18:56.995Z,24.71
2019-04-20T10:21:30.192Z,25.39
2019-04-20T10:24:02.847Z,26.26
2019-04-20T10:26:36.601Z,24.85
2019-04-20T10:29:09.996Z,25.81
2019-04-20T10:31:49.183Z,24.60
2019-04-20T10:34:22.011Z,23.79
2019-04-20T10:37:15.592Z,23.14
2019-04-20T10:39:50.480Z,21.85
2019-04-20T10:42:26.087Z,22.53
2019-04-20T10:45:00.328Z,22.08
2019-04-20T10:47:32.680Z,22.51
2019-04-20T10:50:07.114Z,22.20
2019-04-20T10:52:41.624Z,22.93
2019-04-20T10:55:14.569Z,23.24
2019-04-20T10:57:46.622Z,23.75
2019-04-20T11:00:33.637Z,23.04
2019-04-20T11:03:08.369Z,21.61
2019-04-20T11:05:42.593Z,20.96
2019-04-20T11:08:14.968Z,22.51
2019-04-20T11:10:59.024Z,23.44
2019-04-20T11:13:19.811Z,21.80
2019-04-20T11:15:54.563Z,21.47
2019-04-20T11:18:27.329Z,21.20
2019-04-20T11:21:01.498Z,20.28
2019-04-20T11:23:36.186Z,22.90
2019-04-20T11:26:08.592Z,23.65
2019-04-20T11:28:42.326Z,20.66
2019-04-20T11:31:16.458Z,21.37
2019-04-20T11:33:50.397Z,23.28
2019-04-20T11:36:23.312Z,25.09
2019-04-20T11:38:56.757Z,23.43
2019-04-20T11:41:33.658Z,21.25
2019-04-20T11:44:07.513Z,20.98
2019-04-20T11:46:40.710Z,22.09
2019-04-20T11:49:13.566Z,23.03
2019-04-20T11:51:49.802Z,22.97
2019-04-20T11:54:24.711Z,22.53
2019-04-20T11:56:57.448Z,22.49
2019-04-20T11:59:32.749Z,22.81
2019-04-20T12:02:34.517Z,21.00
2019-04-20T12:05:19.523Z,21.36
2019-04-20T12:07:49.205Z,21.01
2019-04-20T12:10:24.168Z,22.17
2019-04-20T12:12:59.804Z,23.52
2019-04-20T12:15:34.787Z,23.52
2019-04-20T12:18:09.533Z,22.41
2019-04-20T12:20:42.923Z,22.22
2019-04-20T12:23:16.172Z,21.65
2019-04-20T12:25:50.199Z,21.88
2019-04-20T12:28:23.321Z,21.81
2019-04-20T12:31:07.777Z,19.92
2019-04-20T12:33:30.755Z,20.87
2019-04-20T12:36:06.105Z,20.21
2019-04-20T12:38:37.355Z,20.17
2019-04-20T12:41:12.508Z,20.58
2019-04-20T12:43:45.718Z,19.71
2019-04-20T12:46:21.401Z,20.03
2019-04-20T12:48:53.437Z,20.30
2019-04-20T12:51:33.882Z,18.91
2019-04-20T12:54:00.571Z,18.85
2019-04-20T12:56:32.791Z,20.37
2019-04-20T12:59:07.490Z,20.97
2019-04-20T13:01:39.652Z,20.18
2019-04-20T13:04:14.386Z,19.90
2019-04-20T13:06:47.282Z,18.45
2019-04-20T13:09:20.931Z,19.50
2019-04-20T13:12:08.393Z,19.87
2019-04-20T13:15:42.472Z,18.85
2019-04-20T13:18:19.066Z,19.36
2019-04-20T13:20:56.136Z,19.09
2019-04-20T13:23:26.900Z,19.61
2019-04-20T13:26:02.166Z,19.48
2019-04-20T13:28:34.699Z,19.97
2019-04-20T13:31:08.136Z,19.93
2019-04-20T13:33:41.226Z,20.43
2019-04-20T13:36:16.606Z,18.63
2019-04-20T13:38:50.133Z,19.49
2019-04-20T13:41:22.275Z,18.75
2019-04-20T13:43:57.882Z,18.34
2019-04-20T13:46:29.603Z,18.57
2019-04-20T13:49:03.013Z,18.78
2019-04-20T13:51:36.646Z,19.10
2019-04-20T13:54:13.876Z,17.98
2019-04-20T13:56:44.353Z,17.27
2019-04-20T13:59:55.881Z,17.19
2019-04-20T14:02:53.955Z,17.06
2019-04-20T14:05:32.817Z,17.19
2019-04-20T14:08:11.582Z,17.67
2019-04-20T14:10:45.128Z,16.67
2019-04-20T14:13:22.076Z,17.01
2019-04-20T14:15:53.755Z,16.20
2019-04-20T14:18:31.049Z,15.12
2019-04-20T14:21:03.865Z,16.24
2019-04-20T14:23:39.001Z,15.79
2019-04-20T14:26:14.602Z,15.28
2019-04-20T14:28:49.136Z,15.92
2019-04-20T14:31:21.953Z,15.68
2019-04-20T14:33:57.221Z,15.92
2019-04-20T14:36:30.840Z,16.06
2019-04-20T14:39:06.614Z,16.14
2019-04-20T14:41:40.775Z,15.77
2019-04-20T14:44:14.192Z,15.43
2019-04-20T14:46:47.558Z,14.90
2019-04-20T14:49:22.875Z,15.88
2019-04-20T14:52:00.689Z,16.21
2019-04-20T14:54:32.045Z,15.94
2019-04-20T14:57:07.616Z,15.82
2019-04-20T14:59:45.424Z,15.80
2019-04-20T15:02:21.665Z,15.40
2019-04-20T15:04:56.891Z,16.42
2019-04-20T15:07:38.603Z,15.91
2019-04-20T15:10:10.982Z,15.58
2019-04-20T15:12:49.922Z,17.14
2019-04-20T15:15:20.732Z,17.61
2019-04-20T15:18:09.435Z,17.86
2019-04-20T15:20:47.777Z,17.87
2019-04-20T15:23:25.982Z,18.00
2019-04-20T15:25:58.283Z,18.21
2019-04-20T15:28:32.462Z,16.95
2019-04-20T15:31:06.093Z,17.40
2019-04-20T15:33:39.214Z,18.66
2019-04-20T15:36:13.806Z,18.12
2019-04-20T15:38:49.378Z,18.73
2019-04-20T15:44:59.268Z,18.16
2019-04-20T15:47:31.950Z,17.86
2019-04-20T15:50:07.700Z,17.92
2019-04-20T15:52:45.641Z,17.83
2019-04-20T15:55:21.595Z,18.86
2019-04-20T15:57:50.364Z,18.29
2019-04-20T16:00:22.648Z,18.10
2019-04-20T16:03:09.535Z,18.95
2019-04-20T16:06:09.423Z,18.68
2019-04-20T16:08:44.080Z,19.17
2019-04-20T16:11:19.438Z,18.30
2019-04-20T16:13:56.216Z,18.76
2019-04-20T16:16:30.197Z,19.07
2019-04-20T16:19:11.961Z,19.78
2019-04-20T16:21:39.693Z,19.91
2019-04-20T16:24:15.202Z,20.22
2019-04-20T16:26:55.753Z,20.40
2019-04-20T16:29:29.372Z,21.01
2019-04-20T16:32:04.639Z,20.80
2019-04-20T16:34:40.372Z,20.53
2019-04-20T16:37:12.644Z,20.60
2019-04-20T16:39:48.351Z,20.39
2019-04-20T16:42:20.278Z,20.36
2019-04-20T16:44:54.667Z,20.97
2019-04-20T16:47:26.577Z,21.14
2019-04-20T16:50:01.184Z,21.28
2019-04-20T16:52:34.967Z,21.79
2019-04-20T16:55:09.955Z,22.03
2019-04-20T16:57:46.637Z,22.13
2019-04-20T17:00:18.080Z,21.99
2019-04-20T17:02:54.221Z,22.27
2019-04-20T17:05:37.430Z,22.80
2019-04-20T17:08:13.540Z,23.70
2019-04-20T17:10:48.836Z,23.50
2019-04-20T17:13:32.959Z,24.05
2019-04-20T17:15:55.463Z,25.20
2019-04-20T17:18:29.659Z,25.98
2019-04-20T17:21:07.252Z,26.54
2019-04-20T17:23:35.266Z,27.23
2019-04-20T17:26:08.298Z,27.81
2019-04-20T17:29:03.913Z,28.09
2019-04-20T17:31:58.098Z,28.65
2019-04-20T17:34:46.809Z,28.96
2019-04-20T17:37:06.728Z,29.00
2019-04-20T17:40:02.865Z,29.42
2019-04-20T17:42:32.145Z,29.89
2019-04-20T17:44:58.451Z,30.58
2019-04-20T17:47:43.136Z,30.68
2019-04-20T17:50:20.193Z,30.75
2019-04-20T17:52:53.862Z,31.08
2019-04-20T17:55:26.518Z,31.35
2019-04-20T17:57:51.649Z,31.46
2019-04-20T18:00:49.360Z,31.84
2019-04-20T18:03:57.537Z,31.90
2019-04-20T18:06:19.867Z,31.75
2019-04-20T18:08:49.463Z,32.25
2019-04-20T18:11:15.243Z,32.51
2019-04-20T18:13:45.059Z,33.00
2019-04-20T18:16:45.055Z,33.41
2019-04-20T18:19:19.046Z,33.14
2019-04-20T18:22:05.814Z,33.14
2019-04-20T18:25:01.913Z,33.20
2019-04-20T18:27:31.950Z,33.89
2019-04-20T18:30:07.053Z,34.00
2019-04-20T18:32:31.411Z,34.28
2019-04-20T18:35:18.291Z,34.86
2019-04-20T18:37:59.287Z,35.19
2019-04-20T18:40:37.685Z,34.85
2019-04-20T18:43:13.592Z,35.92
2019-04-20T18:45:58.798Z,35.78
2019-04-20T18:48:39.370Z,35.91
2019-04-20T18:50:50.750Z,36.43
2019-04-20T18:53:33.623Z,36.42
2019-04-20T18:56:00.802Z,37.47
2019-04-20T18:58:33.220Z,37.60
2019-04-20T19:01:05.585Z,38.18
2019-04-20T19:03:43.721Z,38.09
2019-04-20T19:06:12.514Z,37.77
2019-04-20T19:08:49.406Z,38.13
2019-04-20T19:11:24.968Z,38.04
2019-04-20T19:14:16.345Z,38.15
2019-04-20T19:17:02.085Z,38.11
2019-04-20T19:19:36.692Z,37.83
2019-04-20T19:22:03.922Z,37.92
2019-04-20T19:24:38.102Z,38.00
2019-04-20T19:27:12.628Z,37.61
2019-04-20T19:29:59.208Z,37.70
2019-04-20T19:32:35.943Z,37.53
2019-04-20T19:35:06.080Z,37.63
2019-04-20T19:37:40.740Z,37.50
2019-04-20T19:40:16.193Z,37.49
2019-04-20T19:42:55.797Z,37.88
2019-04-20T19:45:42.061Z,38.11
2019-04-20T19:48:21.773Z,38.15
2019-04-20T19:51:08.370Z,38.21
2019-04-20T19:53:39.479Z,38.66
2019-04-20T19:56:03.518Z,38.93
2019-04-20T19:58:37.855Z,39.41
2019-04-20T20:01:02.545Z,39.20
2019-04-20T20:03:35.610Z,39.62
2019-04-20T20:06:15.858Z,39.46
2019-04-20T20:08:55.239Z,39.27
2019-04-20T20:11:26.449Z,39.31
2019-04-20T20:13:54.888Z,39.27
2019-04-20T20:16:33.930Z,39.55
2019-04-20T20:19:10.469Z,40.06
2019-04-20T20:21:54.449Z,40.81
2019-04-20T20:24:13.981Z,41.41
2019-04-20T20:26:52.691Z,41.10
2019-04-20T20:29:24.929Z,40.82
2019-04-20T20:32:08.511Z,41.19
2019-04-20T20:34:36.012Z,41.33
2019-04-20T20:37:06.264Z,40.60
2019-04-20T20:39:38.652Z,40.96
2019-04-20T20:42:19.822Z,40.54
2019-04-20T20:44:51.755Z,40.87
2019-04-20T20:47:41.958Z,41.81
2019-04-20T20:50:25.596Z,41.55
2019-04-20T20:52:42.913Z,42.17
2019-04-20T20:55:17.161Z,41.81
2019-04-20T20:57:47.243Z,41.23
2019-04-20T21:00:34.297Z,42.10
2019-04-20T21:02:56.117Z,41.98
2019-04-20T21:05:21.937Z,41.71
2019-04-20T21:07:55.784Z,41.99
2019-04-20T21:10:34.887Z,42.40
2019-04-20T21:13:07.345Z,42.40
2019-04-20T21:15:38.371Z,42.59
2019-04-20T21:18:33.316Z,43.08
2019-04-20T21:21:04.536Z,42.19
2019-04-20T21:23:36.795Z,43.07
2019-04-20T21:26:11.460Z,42.96
2019-04-20T21:28:45.662Z,42.69
2019-04-20T21:31:23.517Z,43.19
2019-04-20T21:33:53.189Z,42.57
2019-04-20T21:36:29.523Z,43.32
2019-04-20T21:39:01.356Z,43.57
2019-04-20T21:41:35.698Z,43.28
2019-04-20T21:44:19.726Z,43.84
2019-04-20T21:46:51.093Z,43.86
2019-04-20T21:49:36.150Z,44.03
2019-04-20T21:52:02.937Z,44.32
2019-04-20T21:54:40.213Z,43.91
2019-04-20T21:57:18.162Z,44.57
2019-04-20T21:59:52.388Z,44.53
2019-04-20T22:02:32.181Z,44.86
2019-04-20T22:05:01.178Z,45.52
2019-04-20T22:07:36.791Z,45.13
2019-04-20T22:10:11.671Z,45.10
2019-04-20T22:12:51.068Z,45.16
2019-04-20T22:15:26.088Z,45.15
2019-04-20T22:18:01.144Z,44.77
2019-04-20T22:20:48.741Z,45.47
2019-04-20T22:23:30.621Z,45.79
2019-04-20T22:25:58.403Z,45.49
2019-04-20T22:28:20.445Z,45.47
2019-04-20T22:30:53.901Z,45.14
2019-04-20T22:33:41.366Z,44.88
2019-04-20T22:36:14.567Z,44.94
2019-04-20T22:39:09.307Z,44.87
2019-04-20T22:41:45.758Z,44.60
2019-04-20T22:44:22.393Z,44.77
2019-04-20T22:46:52.275Z,45.17
2019-04-20T22:49:41.354Z,45.38
2019-04-20T22:52:18.098Z,45.46
2019-04-20T22:54:54.305Z,45.17
2019-04-20T22:57:31.523Z,44.96
2019-04-20T22:59:57.586Z,45.12
2019-04-20T23:02:23.637Z,45.44
2019-04-20T23:04:58.768Z,45.25
2019-04-20T23:07:32.982Z,45.32
2019-04-20T23:10:08.797Z,45.18
2019-04-20T23:12:45.682Z,44.94
2019-04-20T23:15:18.428Z,45.82
2019-04-20T23:17:53.982Z,45.63
2019-04-20T23:20:32.588Z,46.00
2019-04-20T23:23:12.423Z,46.18
2019-04-20T23:25:47.315Z,45.86
2019-04-20T23:28:24.341Z,45.79
2019-04-20T23:31:03.863Z,46.07
2019-04-20T23:33:36.057Z,46.04
2019-04-20T23:36:12.780Z,45.73
2019-04-20T23:38:52.688Z,45.57
2019-04-20T23:41:26.105Z,45.62
2019-04-20T23:44:14.026Z,45.43
2019-04-20T23:47:14.694Z,45.55
2019-04-20T23:50:04.394Z,45.55
2019-04-20T23:52:48.800Z,45.26
2019-04-20T23:55:11.233Z,45.54
2019-04-20T23:57:46.012Z,45.57
